Terminal Aerodrome Forecast
Issued by NWS

Home | Current Version | Previous Version | Text Only | Print | Product List | Glossary On
Versions: 1 2 3 4 5 6 7 8 9 10 11 12
000
FTUS45 KPSR 251123
TAFSDL
TAF
KSDL 251123Z 2512/2612 12006KT P6SM SCT130 BKN250
     FM252100 24007KT P6SM FEW140 SCT250
     FM260400 VRB03KT P6SM SCT140 BKN250=

USA.gov is the U.S. government's official web portal to all federal, state and local government web resources and services.